sensor_id;sensor_type;location;lat;lon;timestamp;P1;durP1;ratioP1;P2;durP2;ratioP2
50086;SDS011;35967;50.718;7.050;2022-12-31T00:05:31;0.00;;;0.00;;
50086;SDS011;35967;50.718;7.050;2022-12-31T00:15:35;0.00;;;0.00;;
50086;SDS011;35967;50.718;7.050;2022-12-31T00:25:39;0.63;;;0.10;;
50086;SDS011;35967;50.718;7.050;2022-12-31T00:35:43;1.13;;;0.10;;
50086;SDS011;35967;50.718;7.050;2022-12-31T00:45:46;0.33;;;0.10;;
50086;SDS011;35967;50.718;7.050;2022-12-31T00:55:51;0.00;;;0.00;;
50086;SDS011;35967;50.718;7.050;2022-12-31T01:05:57;0.00;;;0.00;;
50086;SDS011;35967;50.718;7.050;2022-12-31T01:16:06;0.13;;;0.00;;
50086;SDS011;35967;50.718;7.050;2022-12-31T01:26:11;0.07;;;0.00;;
50086;SDS011;35967;50.718;7.050;2022-12-31T01:36:18;0.10;;;0.00;;
50086;SDS011;35967;50.718;7.050;2022-12-31T01:46:28;0.00;;;0.00;;
50086;SDS011;35967;50.718;7.050;2022-12-31T01:56:37;0.00;;;0.00;;
50086;SDS011;35967;50.718;7.050;2022-12-31T02:06:45;0.00;;;0.00;;
50086;SDS011;35967;50.718;7.050;2022-12-31T02:16:55;1.17;;;0.00;;
50086;SDS011;35967;50.718;7.050;2022-12-31T02:27:06;0.00;;;0.00;;
50086;SDS011;35967;50.718;7.050;2022-12-31T02:37:13;0.23;;;0.00;;
50086;SDS011;35967;50.718;7.050;2022-12-31T02:47:25;0.00;;;0.00;;
50086;SDS011;35967;50.718;7.050;2022-12-31T02:57:39;0.00;;;0.00;;
50086;SDS011;35967;50.718;7.050;2022-12-31T03:07:48;0.00;;;0.00;;
50086;SDS011;35967;50.718;7.050;2022-12-31T03:17:57;0.67;;;0.00;;
50086;SDS011;35967;50.718;7.050;2022-12-31T03:28:05;0.60;;;0.00;;
50086;SDS011;35967;50.718;7.050;2022-12-31T03:38:11;0.00;;;0.00;;
50086;SDS011;35967;50.718;7.050;2022-12-31T03:48:15;0.40;;;0.00;;
50086;SDS011;35967;50.718;7.050;2022-12-31T03:58:19;0.10;;;0.00;;
50086;SDS011;35967;50.718;7.050;2022-12-31T04:08:23;1.97;;;0.47;;
50086;SDS011;35967;50.718;7.050;2022-12-31T04:18:27;0.27;;;0.00;;
50086;SDS011;35967;50.718;7.050;2022-12-31T04:28:31;1.07;;;0.00;;
50086;SDS011;35967;50.718;7.050;2022-12-31T04:38:35;0.10;;;0.00;;
50086;SDS011;35967;50.718;7.050;2022-12-31T04:48:38;3.47;;;0.10;;
50086;SDS011;35967;50.718;7.050;2022-12-31T04:58:43;0.80;;;0.10;;
50086;SDS011;35967;50.718;7.050;2022-12-31T05:08:46;0.50;;;0.10;;
50086;SDS011;35967;50.718;7.050;2022-12-31T05:18:51;0.77;;;0.10;;
50086;SDS011;35967;50.718;7.050;2022-12-31T05:28:54;0.87;;;0.10;;
50086;SDS011;35967;50.718;7.050;2022-12-31T05:39:01;0.30;;;0.10;;
50086;SDS011;35967;50.718;7.050;2022-12-31T05:49:04;1.60;;;0.20;;
50086;SDS011;35967;50.718;7.050;2022-12-31T05:59:08;1.27;;;0.20;;
50086;SDS011;35967;50.718;7.050;2022-12-31T06:09:12;0.90;;;0.10;;
50086;SDS011;35967;50.718;7.050;2022-12-31T06:19:17;3.13;;;0.40;;
50086;SDS011;35967;50.718;7.050;2022-12-31T06:29:20;2.53;;;0.30;;
50086;SDS011;35967;50.718;7.050;2022-12-31T06:39:26;1.50;;;0.20;;
50086;SDS011;35967;50.718;7.050;2022-12-31T06:49:29;1.73;;;0.20;;
50086;SDS011;35967;50.718;7.050;2022-12-31T06:59:34;2.00;;;0.20;;
50086;SDS011;35967;50.718;7.050;2022-12-31T07:09:39;1.13;;;0.20;;
50086;SDS011;35967;50.718;7.050;2022-12-31T07:19:56;0.80;;;0.30;;
50086;SDS011;35967;50.718;7.050;2022-12-31T07:30:06;2.17;;;0.60;;
50086;SDS011;35967;50.718;7.050;2022-12-31T07:40:15;3.20;;;0.30;;
50086;SDS011;35967;50.718;7.050;2022-12-31T07:50:25;2.93;;;0.47;;
50086;SDS011;35967;50.718;7.050;2022-12-31T08:00:30;3.23;;;0.40;;
50086;SDS011;35967;50.718;7.050;2022-12-31T08:10:36;2.07;;;0.37;;
50086;SDS011;35967;50.718;7.050;2022-12-31T08:20:57;1.63;;;0.20;;
50086;SDS011;35967;50.718;7.050;2022-12-31T08:31:09;4.73;;;0.40;;
50086;SDS011;35967;50.718;7.050;2022-12-31T08:41:21;1.33;;;0.20;;
50086;SDS011;35967;50.718;7.050;2022-12-31T08:51:29;1.43;;;0.43;;
50086;SDS011;35967;50.718;7.050;2022-12-31T09:01:35;2.23;;;0.30;;
50086;SDS011;35967;50.718;7.050;2022-12-31T09:11:51;3.47;;;0.30;;
50086;SDS011;35967;50.718;7.050;2022-12-31T09:22:01;2.17;;;0.30;;
50086;SDS011;35967;50.718;7.050;2022-12-31T09:32:07;3.53;;;0.77;;
50086;SDS011;35967;50.718;7.050;2022-12-31T09:53:03;4.03;;;0.50;;
50086;SDS011;35967;50.718;7.050;2022-12-31T10:03:17;3.47;;;0.60;;
50086;SDS011;35967;50.718;7.050;2022-12-31T10:13:44;3.33;;;0.50;;
50086;SDS011;35967;50.718;7.050;2022-12-31T10:24:01;7.80;;;0.43;;
50086;SDS011;35967;50.718;7.050;2022-12-31T10:34:21;1.73;;;0.37;;
50086;SDS011;35967;50.718;7.050;2022-12-31T10:55:27;2.03;;;0.40;;
50086;SDS011;35967;50.718;7.050;2022-12-31T11:16:49;4.13;;;0.50;;
50086;SDS011;35967;50.718;7.050;2022-12-31T11:27:11;7.83;;;0.87;;
50086;SDS011;35967;50.718;7.050;2022-12-31T11:37:31;3.53;;;0.60;;
50086;SDS011;35967;50.718;7.050;2022-12-31T11:47:46;3.70;;;0.40;;
50086;SDS011;35967;50.718;7.050;2022-12-31T11:58:17;3.13;;;0.70;;
50086;SDS011;35967;50.718;7.050;2022-12-31T12:08:22;3.50;;;0.50;;
50086;SDS011;35967;50.718;7.050;2022-12-31T12:18:29;3.40;;;0.50;;
50086;SDS011;35967;50.718;7.050;2022-12-31T12:28:41;5.87;;;0.77;;
50086;SDS011;35967;50.718;7.050;2022-12-31T12:38:58;3.13;;;0.70;;
50086;SDS011;35967;50.718;7.050;2022-12-31T12:49:02;4.27;;;0.53;;
50086;SDS011;35967;50.718;7.050;2022-12-31T12:59:13;2.70;;;0.40;;
50086;SDS011;35967;50.718;7.050;2022-12-31T13:09:37;3.77;;;0.30;;
50086;SDS011;35967;50.718;7.050;2022-12-31T13:19:52;3.93;;;0.60;;
50086;SDS011;35967;50.718;7.050;2022-12-31T13:30:03;3.37;;;0.80;;
50086;SDS011;35967;50.718;7.050;2022-12-31T13:40:26;2.80;;;0.50;;
50086;SDS011;35967;50.718;7.050;2022-12-31T13:50:33;3.30;;;0.67;;
50086;SDS011;35967;50.718;7.050;2022-12-31T14:00:42;4.80;;;0.70;;
50086;SDS011;35967;50.718;7.050;2022-12-31T14:10:53;4.57;;;1.10;;
50086;SDS011;35967;50.718;7.050;2022-12-31T14:21:05;3.20;;;0.50;;
50086;SDS011;35967;50.718;7.050;2022-12-31T14:31:16;1.40;;;0.40;;
50086;SDS011;35967;50.718;7.050;2022-12-31T14:41:36;4.90;;;0.53;;
50086;SDS011;35967;50.718;7.050;2022-12-31T14:51:46;3.17;;;0.47;;
50086;SDS011;35967;50.718;7.050;2022-12-31T15:01:51;4.80;;;0.70;;
50086;SDS011;35967;50.718;7.050;2022-12-31T15:11:58;2.63;;;0.53;;
50086;SDS011;35967;50.718;7.050;2022-12-31T15:22:11;4.43;;;0.70;;
50086;SDS011;35967;50.718;7.050;2022-12-31T15:32:30;8.40;;;3.73;;
50086;SDS011;35967;50.718;7.050;2022-12-31T15:42:40;3.50;;;0.70;;
50086;SDS011;35967;50.718;7.050;2022-12-31T15:52:51;3.97;;;0.60;;
50086;SDS011;35967;50.718;7.050;2022-12-31T16:02:58;5.53;;;1.10;;
50086;SDS011;35967;50.718;7.050;2022-12-31T16:13:01;3.53;;;0.50;;
50086;SDS011;35967;50.718;7.050;2022-12-31T16:23:14;2.93;;;0.80;;
50086;SDS011;35967;50.718;7.050;2022-12-31T16:33:22;12.90;;;4.17;;
50086;SDS011;35967;50.718;7.050;2022-12-31T16:43:27;3.27;;;0.80;;
50086;SDS011;35967;50.718;7.050;2022-12-31T16:53:33;3.27;;;0.60;;
50086;SDS011;35967;50.718;7.050;2022-12-31T17:03:41;5.37;;;0.73;;
50086;SDS011;35967;50.718;7.050;2022-12-31T17:13:51;4.67;;;0.70;;
50086;SDS011;35967;50.718;7.050;2022-12-31T17:23:58;9.17;;;2.50;;
50086;SDS011;35967;50.718;7.050;2022-12-31T17:34:05;6.03;;;1.00;;
50086;SDS011;35967;50.718;7.050;2022-12-31T17:44:24;5.63;;;1.60;;
50086;SDS011;35967;50.718;7.050;2022-12-31T17:54:30;13.30;;;3.50;;
50086;SDS011;35967;50.718;7.050;2022-12-31T18:04:34;4.90;;;1.97;;
50086;SDS011;35967;50.718;7.050;2022-12-31T18:14:38;7.27;;;0.70;;
50086;SDS011;35967;50.718;7.050;2022-12-31T18:24:43;4.87;;;1.07;;
50086;SDS011;35967;50.718;7.050;2022-12-31T18:34:46;3.97;;;0.80;;
50086;SDS011;35967;50.718;7.050;2022-12-31T18:44:51;6.87;;;0.80;;
50086;SDS011;35967;50.718;7.050;2022-12-31T18:54:55;5.37;;;0.93;;
50086;SDS011;35967;50.718;7.050;2022-12-31T19:04:59;6.17;;;1.13;;
50086;SDS011;35967;50.718;7.050;2022-12-31T19:15:05;4.73;;;0.80;;
50086;SDS011;35967;50.718;7.050;2022-12-31T19:25:18;5.50;;;0.80;;
50086;SDS011;35967;50.718;7.050;2022-12-31T19:35:43;7.23;;;0.77;;
50086;SDS011;35967;50.718;7.050;2022-12-31T19:45:47;5.63;;;1.10;;
50086;SDS011;35967;50.718;7.050;2022-12-31T19:55:52;10.97;;;0.90;;
50086;SDS011;35967;50.718;7.050;2022-12-31T20:06:00;5.90;;;0.83;;
50086;SDS011;35967;50.718;7.050;2022-12-31T20:16:06;9.07;;;0.90;;
50086;SDS011;35967;50.718;7.050;2022-12-31T20:26:11;19.47;;;1.13;;
50086;SDS011;35967;50.718;7.050;2022-12-31T20:36:14;6.23;;;0.80;;
50086;SDS011;35967;50.718;7.050;2022-12-31T20:46:22;5.27;;;1.03;;
50086;SDS011;35967;50.718;7.050;2022-12-31T20:56:27;6.17;;;1.10;;
50086;SDS011;35967;50.718;7.050;2022-12-31T21:06:33;3.03;;;0.67;;
50086;SDS011;35967;50.718;7.050;2022-12-31T21:16:36;7.63;;;1.13;;
50086;SDS011;35967;50.718;7.050;2022-12-31T21:26:41;7.30;;;0.90;;
50086;SDS011;35967;50.718;7.050;2022-12-31T21:36:44;6.70;;;1.17;;
50086;SDS011;35967;50.718;7.050;2022-12-31T21:46:52;1.60;;;0.50;;
50086;SDS011;35967;50.718;7.050;2022-12-31T21:57:16;10.20;;;1.00;;
50086;SDS011;35967;50.718;7.050;2022-12-31T22:07:20;2.23;;;0.70;;
50086;SDS011;35967;50.718;7.050;2022-12-31T22:17:24;2.80;;;0.70;;
50086;SDS011;35967;50.718;7.050;2022-12-31T22:27:28;3.03;;;1.10;;
50086;SDS011;35967;50.718;7.050;2022-12-31T22:37:31;3.00;;;0.73;;
50086;SDS011;35967;50.718;7.050;2022-12-31T22:47:56;3.93;;;1.00;;
50086;SDS011;35967;50.718;7.050;2022-12-31T22:57:59;9.07;;;1.30;;
50086;SDS011;35967;50.718;7.050;2022-12-31T23:08:03;34.93;;;18.03;;
50086;SDS011;35967;50.718;7.050;2022-12-31T23:28:42;20.10;;;8.27;;
50086;SDS011;35967;50.718;7.050;2022-12-31T23:38:45;19.83;;;6.83;;
50086;SDS011;35967;50.718;7.050;2022-12-31T23:48:50;15.80;;;6.87;;
50086;SDS011;35967;50.718;7.050;2022-12-31T23:58:54;12.40;;;4.43;;
